Time;durP1;ratioP1;P1;durP2;ratioP2;P2;SDS_P1;SDS_P2;PMS_P1;PMS_P2;Temp;Humidity;BMP_temperature;BMP_pressure;BME280_temperature;BME280_humidity;BME280_pressure;Samples;Min_cycle;Max_cycle;Signal;HPM_P1;HPM_P2
2022/08/31 00:05:58;;;;;;;5.13;1.75;;;20.40;57.90;;;;;;5091883;28;20024;-61
2022/08/31 00:08:24;;;;;;;4.03;1.63;;;20.40;58.00;;;;;;5094459;28;20032;-61
2022/08/31 00:10:50;;;;;;;4.00;1.77;;;20.40;58.00;;;;;;5091741;28;20042;-61
2022/08/31 00:13:16;;;;;;;3.65;1.73;;;20.40;58.00;;;;;;5071804;28;20040;-61
2022/08/31 00:15:42;;;;;;;4.22;1.75;;;20.40;58.10;;;;;;5082863;28;20142;-61
2022/08/31 00:18:08;;;;;;;4.82;1.80;;;20.30;58.10;;;;;;5094215;28;20461;-61
2022/08/31 00:20:35;;;;;;;5.07;1.90;;;20.30;58.10;;;;;;5094251;28;20070;-61
2022/08/31 00:23:06;;;;;;;5.55;1.92;;;20.30;58.20;;;;;;5093267;28;20028;-61
2022/08/31 00:25:33;;;;;;;4.95;1.63;;;20.30;58.20;;;;;;5084943;28;20382;-61
2022/08/31 00:27:59;;;;;;;5.55;1.95;;;20.30;58.30;;;;;;5092160;28;20039;-61
2022/08/31 00:30:25;;;;;;;4.88;1.80;;;20.30;58.30;;;;;;5076472;28;20422;-61
2022/08/31 00:32:51;;;;;;;5.45;2.10;;;20.30;58.40;;;;;;5092750;28;20020;-61
2022/08/31 00:35:17;;;;;;;6.65;1.90;;;20.20;58.30;;;;;;5058728;28;20027;-61
2022/08/31 00:37:43;;;;;;;4.07;1.73;;;20.20;58.30;;;;;;5092571;28;20016;-61
2022/08/31 00:40:09;;;;;;;3.47;1.52;;;20.20;58.40;;;;;;5063868;28;20455;-61
2022/08/31 00:42:35;;;;;;;5.07;1.83;;;20.20;58.40;;;;;;5072170;28;20039;-61
2022/08/31 00:45:01;;;;;;;5.25;2.05;;;20.10;58.50;;;;;;5090108;28;20036;-61
2022/08/31 00:47:26;;;;;;;3.97;1.67;;;20.10;58.50;;;;;;5056561;28;20031;-61
2022/08/31 00:49:52;;;;;;;4.97;1.75;;;20.10;58.50;;;;;;5075872;28;20032;-61
2022/08/31 00:52:29;;;;;;;4.20;1.77;;;20.10;58.60;;;;;;5050381;28;20491;-61
2022/08/31 00:55:03;;;;;;;6.78;1.70;;;20.10;58.60;;;;;;5086318;28;20036;-61
2022/08/31 00:57:32;;;;;;;4.10;2.05;;;20.10;58.70;;;;;;5084480;28;20043;-61
2022/08/31 01:00:00;;;;;;;4.43;2.17;;;20.00;58.70;;;;;;5076131;28;20043;-61
2022/08/31 01:02:26;;;;;;;4.72;1.98;;;20.00;58.70;;;;;;5092187;28;20385;-61
2022/08/31 01:04:51;;;;;;;3.70;1.80;;;20.00;58.70;;;;;;5087071;28;20028;-61
2022/08/31 01:07:17;;;;;;;3.95;1.70;;;20.00;58.80;;;;;;5076188;28;20036;-61
2022/08/31 01:09:43;;;;;;;4.63;2.08;;;19.90;58.80;;;;;;5074811;28;20177;-61
2022/08/31 01:12:10;;;;;;;5.45;1.92;;;19.90;58.80;;;;;;5089282;28;20024;-61
2022/08/31 01:14:38;;;;;;;4.80;1.50;;;19.90;58.90;;;;;;5064606;28;20047;-62
2022/08/31 01:17:04;;;;;;;4.05;1.77;;;19.80;58.80;;;;;;5093525;28;20115;-61
2022/08/31 01:19:46;;;;;;;4.03;1.85;;;19.80;58.90;;;;;;5093532;28;20024;-61
2022/08/31 01:22:17;;;;;;;4.88;1.90;;;19.80;58.90;;;;;;5091550;28;20492;-61
2022/08/31 01:24:45;;;;;;;4.22;1.90;;;19.80;59.00;;;;;;5091778;28;20028;-61
2022/08/31 01:27:13;;;;;;;5.03;1.85;;;19.70;59.00;;;;;;5092689;28;20115;-61
2022/08/31 01:29:39;;;;;;;4.35;1.58;;;19.70;59.00;;;;;;5059150;28;20038;-61
2022/08/31 01:32:06;;;;;;;6.43;2.05;;;19.70;59.00;;;;;;5067740;28;20055;-61
2022/08/31 01:34:33;;;;;;;4.80;1.67;;;19.70;59.00;;;;;;5090592;28;20365;-61
2022/08/31 01:37:00;;;;;;;5.35;2.08;;;19.70;59.00;;;;;;5075869;28;20115;-61
2022/08/31 01:39:25;;;;;;;4.03;1.60;;;19.70;59.10;;;;;;5091824;28;20024;-61
2022/08/31 01:41:52;;;;;;;5.32;2.00;;;19.60;59.00;;;;;;5075436;28;20359;-61
2022/08/31 01:44:22;;;;;;;4.10;1.80;;;19.60;59.00;;;;;;5073743;28;20023;-61
2022/08/31 01:46:49;;;;;;;5.05;1.67;;;19.60;59.10;;;;;;5050215;28;20030;-61
2022/08/31 01:49:16;;;;;;;5.45;1.90;;;19.60;59.10;;;;;;5091866;28;20036;-61
2022/08/31 01:51:43;;;;;;;4.00;1.70;;;19.60;59.10;;;;;;5063730;28;20055;-62
2022/08/31 01:54:10;;;;;;;4.97;2.10;;;19.50;59.00;;;;;;5069299;28;20066;-61
2022/08/31 01:56:40;;;;;;;4.38;1.80;;;19.50;59.00;;;;;;5083306;28;20077;-61
2022/08/31 01:59:11;;;;;;;5.65;1.83;;;19.50;59.00;;;;;;5079065;28;20402;-61
2022/08/31 02:02:15;;;;;;;4.15;1.52;;;19.50;58.90;;;;;;5006234;28;20077;-61
2022/08/31 02:04:41;;;;;;;3.92;1.77;;;19.40;58.90;;;;;;4976442;28;20053;-61
2022/08/31 02:07:06;;;;;;;3.33;1.67;;;19.40;58.90;;;;;;5010836;28;20058;-61
2022/08/31 02:09:33;;;;;;;4.63;1.73;;;19.40;59.00;;;;;;4997911;28;20026;-61
2022/08/31 02:11:59;;;;;;;2.70;1.50;;;19.40;58.90;;;;;;4998211;28;20487;-61
2022/08/31 02:14:24;;;;;;;3.83;1.83;;;19.40;58.90;;;;;;5013701;28;20319;-61
2022/08/31 02:16:51;;;;;;;4.68;1.98;;;19.40;58.90;;;;;;5012569;28;20049;-61
2022/08/31 02:19:16;;;;;;;4.65;1.77;;;19.40;58.80;;;;;;5013124;28;20124;-61
2022/08/31 02:21:42;;;;;;;4.80;1.80;;;19.30;58.80;;;;;;4998105;28;20108;-61
2022/08/31 02:24:11;;;;;;;5.05;1.77;;;19.30;58.80;;;;;;4996105;28;20023;-61
2022/08/31 02:26:37;;;;;;;2.80;1.45;;;19.30;58.80;;;;;;5010545;28;20046;-61
2022/08/31 02:29:06;;;;;;;4.03;1.55;;;19.30;58.80;;;;;;4998260;28;20477;-61
2022/08/31 02:31:32;;;;;;;5.40;1.73;;;19.30;58.80;;;;;;5007086;28;20026;-59
2022/08/31 02:33:59;;;;;;;3.30;1.67;;;19.20;58.70;;;;;;5067049;28;20314;-60
2022/08/31 02:36:25;;;;;;;5.20;1.80;;;19.20;58.70;;;;;;5076588;28;20110;-60
2022/08/31 02:38:50;;;;;;;4.57;1.88;;;19.20;58.60;;;;;;5078201;28;20348;-60
2022/08/31 02:41:17;;;;;;;3.35;1.65;;;19.20;58.60;;;;;;5076817;28;20016;-60
2022/08/31 02:43:43;;;;;;;4.00;1.70;;;19.10;58.50;;;;;;5095461;28;20069;-60
2022/08/31 02:46:09;;;;;;;4.07;1.77;;;19.10;58.50;;;;;;5068954;28;20081;-59
2022/08/31 02:48:41;;;;;;;;;;;19.10;58.50;;;;;;5074226;28;20093;-59
2022/08/31 02:51:10;;;;;;;2.33;1.27;;;19.10;58.50;;;;;;5078000;28;20260;-60
2022/08/31 02:53:36;;;;;;;5.47;1.83;;;19.00;58.60;;;;;;5047900;28;20034;-60
2022/08/31 02:56:04;;;;;;;4.70;1.70;;;19.00;58.50;;;;;;5075391;28;20102;-60
2022/08/31 02:58:32;;;;;;;4.63;2.00;;;19.00;58.40;;;;;;5077716;28;20127;-60
2022/08/31 03:00:59;;;;;;;4.88;1.50;;;18.90;58.30;;;;;;5074307;28;20024;-60
2022/08/31 03:03:24;;;;;;;3.13;1.58;;;18.90;58.40;;;;;;5076492;28;20333;-60
2022/08/31 03:05:50;;;;;;;4.63;1.75;;;18.90;58.30;;;;;;5075454;28;20035;-60
2022/08/31 03:08:16;;;;;;;4.32;1.52;;;18.90;58.30;;;;;;5060552;28;20028;-59
2022/08/31 03:10:43;;;;;;;3.45;1.42;;;18.90;58.30;;;;;;5077710;28;20051;-60
2022/08/31 03:13:10;;;;;;;4.55;1.50;;;18.90;58.20;;;;;;5082952;28;20041;-59
2022/08/31 03:15:35;;;;;;;3.53;1.58;;;18.80;58.70;;;;;;5051732;28;20039;-59
2022/08/31 03:18:03;;;;;;;3.22;1.60;;;18.90;58.20;;;;;;5068540;28;20114;-60
2022/08/31 03:20:28;;;;;;;3.78;1.65;;;18.80;58.10;;;;;;5088869;28;20139;-60
2022/08/31 03:22:54;;;;;;;3.08;1.40;;;18.80;58.10;;;;;;5082264;28;20036;-59
2022/08/31 03:25:20;;;;;;;3.67;1.45;;;18.80;58.00;;;;;;5085465;28;20013;-60
2022/08/31 03:27:46;;;;;;;3.83;1.55;;;18.80;57.90;;;;;;5094531;28;20036;-60
2022/08/31 03:30:15;;;;;;;4.30;1.80;;;18.80;57.80;;;;;;5091878;28;20035;-59
2022/08/31 03:32:47;;;;;;;4.57;1.60;;;18.70;57.70;;;;;;5057927;28;20056;-59
2022/08/31 03:35:14;;;;;;;4.03;1.77;;;18.80;57.70;;;;;;5071170;28;20031;-59
2022/08/31 03:37:40;;;;;;;3.92;1.50;;;18.70;57.60;;;;;;5076921;28;20035;-60
2022/08/31 03:40:07;;;;;;;4.63;1.70;;;18.70;57.50;;;;;;5076962;28;20444;-59
2022/08/31 03:42:33;;;;;;;4.78;1.55;;;18.70;57.50;;;;;;5074028;28;20440;-60
2022/08/31 03:44:59;;;;;;;4.50;1.70;;;18.70;57.50;;;;;;5065479;28;20127;-60
2022/08/31 03:47:28;;;;;;;3.88;1.67;;;18.60;57.40;;;;;;5071070;28;20024;-60
2022/08/31 03:49:55;;;;;;;3.20;1.35;;;18.60;57.30;;;;;;5056431;28;20496;-60
2022/08/31 03:52:38;;;;;;;2.85;1.33;;;18.60;57.30;;;;;;5075065;28;20449;-59
2022/08/31 03:55:12;;;;;;;4.05;1.48;;;18.60;57.30;;;;;;5074837;28;20055;-59
2022/08/31 03:57:39;;;;;;;3.50;1.42;;;18.60;57.20;;;;;;5076601;28;20569;-59
2022/08/31 04:00:06;;;;;;;3.50;1.50;;;18.60;57.70;;;;;;5076757;28;20119;-60
2022/08/31 04:02:40;;;;;;;3.58;1.70;;;18.60;57.10;;;;;;5088905;28;20414;-59
2022/08/31 04:05:27;;;;;;;3.80;1.63;;;18.50;57.00;;;;;;5087951;28;20066;-59
2022/08/31 04:08:24;;;;;;;3.78;1.27;;;18.50;57.00;;;;;;5082982;28;20047;-59
2022/08/31 04:11:15;;;;;;;3.30;1.45;;;18.50;57.00;;;;;;5089263;28;20130;-59
2022/08/31 04:13:59;;;;;;;3.58;1.40;;;18.50;56.90;;;;;;5089595;28;20059;-59
2022/08/31 04:16:45;;;;;;;2.60;1.38;;;18.40;56.80;;;;;;5091531;28;20032;-60
2022/08/31 04:19:34;;;;;;;3.15;1.40;;;18.40;56.70;;;;;;5071785;28;20058;-59
2022/08/31 04:22:12;;;;;;;3.72;1.35;;;18.40;56.70;;;;;;5067833;28;20372;-59
2022/08/31 04:24:49;;;;;;;3.33;1.33;;;18.40;56.60;;;;;;5061643;28;20036;-60
2022/08/31 04:27:15;;;;;;;3.70;1.20;;;18.40;56.50;;;;;;5074473;28;20022;-60
2022/08/31 04:29:40;;;;;;;3.00;1.40;;;18.40;56.40;;;;;;5076563;28;20050;-59
2022/08/31 04:32:06;;;;;;;3.42;1.30;;;18.40;56.30;;;;;;5084673;28;20028;-59
2022/08/31 04:34:31;;;;;;;2.85;1.25;;;18.40;56.20;;;;;;5066613;28;20089;-60
2022/08/31 04:36:57;;;;;;;3.35;1.38;;;18.40;56.10;;;;;;5059543;28;20025;-60
2022/08/31 04:39:23;;;;;;;3.35;1.40;;;18.30;56.00;;;;;;5067609;28;20437;-60
2022/08/31 04:41:49;;;;;;;7.88;1.45;;;18.30;55.90;;;;;;5069721;28;20450;-59
2022/08/31 04:44:15;;;;;;;4.30;1.50;;;18.30;55.90;;;;;;5067517;28;20040;-59
2022/08/31 04:46:41;;;;;;;3.60;1.10;;;18.30;56.40;;;;;;5055179;28;20445;-59
2022/08/31 04:49:09;;;;;;;3.20;1.40;;;18.30;55.80;;;;;;5086494;28;20036;-59
2022/08/31 04:51:37;;;;;;;3.67;1.40;;;18.30;55.70;;;;;;5076438;28;20032;-59
2022/08/31 04:54:06;;;;;;;2.80;1.27;;;18.30;55.60;;;;;;5069948;28;20036;-59
2022/08/31 04:56:36;;;;;;;4.32;1.20;;;18.30;55.40;;;;;;5067985;28;20023;-59
2022/08/31 04:59:04;;;;;;;2.63;1.17;;;18.30;55.20;;;;;;5068172;28;20043;-59
2022/08/31 05:01:38;;;;;;;2.05;1.20;;;18.30;55.20;;;;;;5066703;28;20020;-59
2022/08/31 05:04:22;;;;;;;3.53;1.33;;;18.20;55.10;;;;;;5082574;28;20024;-59
2022/08/31 05:06:49;;;;;;;2.53;0.82;;;18.20;55.00;;;;;;5065771;28;20115;-59
2022/08/31 05:09:18;;;;;;;3.05;1.20;;;18.20;54.90;;;;;;5069341;28;20028;-60
2022/08/31 05:11:46;;;;;;;2.38;1.23;;;18.20;54.80;;;;;;5073493;28;20333;-60
2022/08/31 05:14:12;;;;;;;3.42;1.30;;;18.20;54.70;;;;;;5057311;28;20055;-60
2022/08/31 05:16:42;;;;;;;2.67;1.00;;;18.20;54.50;;;;;;5066427;28;20057;-60
2022/08/31 05:19:09;;;;;;;3.47;1.30;;;18.20;54.50;;;;;;5065180;28;20028;-59
2022/08/31 05:21:38;;;;;;;2.60;1.10;;;18.20;54.40;;;;;;5069471;28;20481;-60
2022/08/31 05:24:17;;;;;;;3.35;1.27;;;18.20;54.20;;;;;;5064981;28;20028;-60
2022/08/31 05:26:49;;;;;;;4.47;1.25;;;18.20;54.10;;;;;;5070099;28;20021;-60
2022/08/31 05:29:18;;;;;;;2.47;0.93;;;18.20;54.00;;;;;;5069457;28;20031;-60
2022/08/31 05:31:44;;;;;;;2.65;1.10;;;18.20;53.90;;;;;;5068650;28;20021;-60
2022/08/31 05:34:11;;;;;;;2.65;1.10;;;18.20;53.80;;;;;;5067537;28;20033;-60
2022/08/31 05:36:38;;;;;;;3.70;1.15;;;18.20;53.80;;;;;;5082140;28;20446;-60
2022/08/31 05:39:08;;;;;;;2.40;1.20;;;18.20;53.60;;;;;;5051731;28;20057;-60
2022/08/31 05:41:34;;;;;;;1.63;0.95;;;18.20;53.60;;;;;;5068723;28;20013;-59
2022/08/31 05:44:02;;;;;;;7.70;1.17;;;18.20;53.50;;;;;;5068515;28;20047;-60
2022/08/31 05:46:29;;;;;;;3.25;1.00;;;18.20;53.50;;;;;;5067479;28;20035;-60
2022/08/31 05:48:56;;;;;;;3.30;1.35;;;18.20;53.50;;;;;;5067242;28;20127;-60
2022/08/31 05:51:22;;;;;;;2.30;1.00;;;18.20;53.60;;;;;;5067170;28;20161;-60
2022/08/31 05:53:48;;;;;;;2.67;1.10;;;18.20;53.60;;;;;;5050095;28;20028;-59
2022/08/31 05:56:19;;;;;;;3.17;1.15;;;18.20;53.60;;;;;;5065279;28;20028;-60
2022/08/31 05:58:47;;;;;;;3.63;1.15;;;18.30;53.50;;;;;;5049264;28;20025;-61
2022/08/31 06:01:14;;;;;;;2.05;1.00;;;18.30;53.30;;;;;;5044250;28;20578;-61
2022/08/31 06:03:59;;;;;;;2.08;1.05;;;18.30;53.20;;;;;;5044620;28;20025;-61
2022/08/31 06:06:25;;;;;;;2.28;1.20;;;18.30;53.20;;;;;;5070044;28;20033;-60
2022/08/31 06:08:51;;;;;;;2.30;0.90;;;18.30;53.10;;;;;;5068935;28;20036;-60
2022/08/31 06:11:19;;;;;;;2.13;0.98;;;18.30;53.10;;;;;;5065634;28;20125;-61
2022/08/31 06:13:49;;;;;;;3.00;1.00;;;18.40;53.20;;;;;;5069022;28;20036;-61
2022/08/31 06:16:16;;;;;;;2.85;1.10;;;18.40;53.10;;;;;;5069211;28;20040;-61
2022/08/31 06:18:49;;;;;;;3.83;1.30;;;18.50;53.10;;;;;;5067137;28;20032;-61
2022/08/31 06:21:19;;;;;;;2.22;0.88;;;18.50;52.90;;;;;;5064564;28;20407;-60
2022/08/31 06:23:47;;;;;;;2.17;1.23;;;18.60;52.80;;;;;;5065779;28;20030;-60
2022/08/31 06:26:15;;;;;;;2.22;0.93;;;18.70;52.60;;;;;;5067558;28;20031;-61
2022/08/31 06:28:43;;;;;;;2.92;1.10;;;18.90;52.20;;;;;;5064048;28;20021;-61
2022/08/31 06:31:20;;;;;;;2.42;1.10;;;19.10;51.90;;;;;;5061946;28;20028;-61
2022/08/31 06:33:46;;;;;;;4.85;1.20;;;19.20;51.60;;;;;;5063343;28;20043;-60
2022/08/31 06:36:18;;;;;;;2.75;1.10;;;19.20;51.60;;;;;;5066215;28;20031;-60
2022/08/31 06:38:58;;;;;;;2.95;1.00;;;19.20;51.60;;;;;;5067427;28;20104;-60
2022/08/31 06:41:47;;;;;;;;;;;19.20;51.70;;;;;;5058955;28;20483;-60
2022/08/31 06:44:25;;;;;;;2.75;1.10;;;19.10;51.90;;;;;;5067457;28;20003;-60
2022/08/31 06:47:05;;;;;;;2.60;1.10;;;19.00;52.00;;;;;;5067978;28;20016;-60
2022/08/31 06:49:33;;;;;;;2.80;0.80;;;19.00;52.10;;;;;;5067294;28;20024;-60
2022/08/31 06:51:59;;;;;;;2.60;1.10;;;19.10;52.10;;;;;;5040843;28;20043;-60
2022/08/31 06:54:26;;;;;;;3.58;1.23;;;19.10;52.00;;;;;;5082918;28;20025;-60
2022/08/31 06:57:10;;;;;;;5.43;1.15;;;19.20;52.10;;;;;;5059451;28;20119;-60
2022/08/31 06:59:55;;;;;;;2.22;1.00;;;19.20;51.90;;;;;;5062240;28;20036;-60
2022/08/31 07:02:32;;;;;;;2.67;0.85;;;19.40;52.40;;;;;;5060972;28;20024;-61
2022/08/31 07:04:58;;;;;;;2.45;0.90;;;19.40;51.70;;;;;;5064669;28;20080;-61
2022/08/31 07:07:24;;;;;;;3.17;1.30;;;19.40;51.90;;;;;;5058568;28;20025;-61
2022/08/31 07:09:51;;;;;;;3.15;1.20;;;19.40;51.90;;;;;;5055324;28;20120;-61
2022/08/31 07:12:16;;;;;;;3.50;1.13;;;19.40;52.00;;;;;;5060195;28;20025;-62
2022/08/31 07:14:45;;;;;;;3.10;1.10;;;19.40;52.20;;;;;;5046383;28;20064;-62
2022/08/31 07:17:10;;;;;;;3.80;1.30;;;19.40;52.20;;;;;;5060927;28;20036;-61
2022/08/31 07:19:36;;;;;;;3.08;0.90;;;19.50;52.30;;;;;;5047783;28;20036;-62
2022/08/31 07:22:06;;;;;;;2.58;1.20;;;19.70;52.20;;;;;;5064188;28;20114;-62
2022/08/31 07:24:34;;;;;;;4.05;1.30;;;19.80;51.90;;;;;;5066466;28;20025;-63
2022/08/31 07:27:03;;;;;;;2.50;1.00;;;19.90;51.80;;;;;;5060586;28;20025;-63
2022/08/31 07:29:39;;;;;;;2.63;1.00;;;20.10;51.60;;;;;;5059995;28;20338;-63
2022/08/31 07:32:11;;;;;;;4.32;1.30;;;20.40;51.30;;;;;;5061419;28;20035;-63
2022/08/31 07:34:37;;;;;;;3.17;1.27;;;20.60;51.10;;;;;;5059783;28;20470;-63
2022/08/31 07:42:46;;;;;;;3.40;1.10;;;21.30;50.20;;;;;;5066396;28;20089;-63
2022/08/31 07:45:20;;;;;;;6.63;1.40;;;21.50;50.00;;;;;;5060384;28;20107;-63
2022/08/31 07:47:48;;;;;;;2.70;1.05;;;21.50;50.10;;;;;;5060517;28;20028;-63
2022/08/31 07:50:16;;;;;;;3.47;1.00;;;21.50;50.20;;;;;;5062605;28;20032;-62
2022/08/31 07:53:10;;;;;;;6.13;1.40;;;21.60;50.10;;;;;;5060431;28;20032;-62
2022/08/31 07:55:55;;;;;;;4.95;1.83;;;21.80;49.80;;;;;;5065241;28;20098;-62
2022/08/31 07:58:41;;;;;;;3.22;1.30;;;21.90;49.70;;;;;;5048864;28;20365;-62
2022/08/31 08:01:07;;;;;;;4.90;1.58;;;22.10;49.60;;;;;;5059642;28;20035;-62
2022/08/31 08:03:33;;;;;;;2.13;1.00;;;22.30;49.50;;;;;;5052906;28;20507;-62
2022/08/31 08:06:18;;;;;;;5.75;1.48;;;22.50;49.20;;;;;;5062342;28;20368;-62
2022/08/31 08:09:04;;;;;;;2.78;1.20;;;22.70;49.10;;;;;;5068173;28;20126;-62
2022/08/31 08:11:43;;;;;;;3.38;1.20;;;22.90;48.70;;;;;;5073145;28;20028;-62
2022/08/31 08:14:37;;;;;;;2.80;0.90;;;23.10;48.40;;;;;;5054829;28;20076;-63
2022/08/31 08:17:12;;;;;;;3.42;1.33;;;23.40;48.20;;;;;;5070716;28;20119;-62
2022/08/31 08:19:43;;;;;;;3.40;1.20;;;23.50;48.00;;;;;;5063272;28;20032;-62
2022/08/31 08:22:08;;;;;;;2.63;1.13;;;23.50;47.80;;;;;;5067617;28;20025;-62
2022/08/31 08:25:05;;;;;;;1.60;0.90;;;23.60;47.80;;;;;;5071443;28;20116;-60
2022/08/31 08:27:42;;;;;;;4.13;1.42;;;23.60;47.70;;;;;;5060538;28;20013;-61
2022/08/31 08:30:24;;;;;;;3.22;1.20;;;23.70;47.60;;;;;;5057138;28;20029;-60
2022/08/31 08:32:50;;;;;;;1.98;0.93;;;23.80;47.30;;;;;;5066803;28;20021;-60
2022/08/31 08:35:15;;;;;;;3.65;1.38;;;23.90;47.10;;;;;;5064841;28;20021;-60
2022/08/31 08:37:47;;;;;;;3.35;1.10;;;23.90;46.90;;;;;;5072372;28;20025;-60
2022/08/31 08:40:43;;;;;;;3.35;1.33;;;23.90;47.00;;;;;;5072275;28;20059;-60
2022/08/31 08:43:17;;;;;;;3.33;1.45;;;23.60;47.20;;;;;;5053262;28;20667;-63
2022/08/31 08:45:51;;;;;;;3.10;1.10;;;23.50;47.60;;;;;;5063288;28;20040;-63
2022/08/31 08:48:25;;;;;;;2.45;1.23;;;23.20;47.80;;;;;;5069085;28;20033;-63
2022/08/31 08:50:52;;;;;;;3.78;1.48;;;23.10;48.20;;;;;;5067437;28;20055;-63
2022/08/31 08:53:30;;;;;;;4.50;1.55;;;22.90;48.40;;;;;;5057264;28;20029;-63
2022/08/31 08:56:19;;;;;;;3.33;1.33;;;22.80;48.70;;;;;;5087357;28;20107;-63
2022/08/31 08:58:45;;;;;;;2.85;1.20;;;22.80;48.80;;;;;;5077729;28;20060;-64
2022/08/31 09:01:22;;;;;;;4.10;1.30;;;23.00;48.70;;;;;;5075431;28;20433;-63
2022/08/31 09:04:06;;;;;;;2.90;1.25;;;23.40;48.40;;;;;;5076352;28;20028;-63
2022/08/31 09:07:03;;;;;;;5.50;1.73;;;23.80;48.00;;;;;;5070283;28;20044;-61
2022/08/31 09:09:44;;;;;;;3.83;1.35;;;24.20;47.40;;;;;;5075724;28;20045;-61
2022/08/31 09:12:10;;;;;;;4.63;1.40;;;24.40;46.90;;;;;;5067973;28;20033;-61
2022/08/31 09:14:52;;;;;;;1.92;0.85;;;24.70;46.70;;;;;;5066390;28;20365;-61
2022/08/31 09:18:00;;;;;;;5.55;1.20;;;24.90;46.20;;;;;;5068100;28;20071;-61
2022/08/31 09:20:31;;;;;;;3.95;1.08;;;25.00;46.20;;;;;;5055072;28;20041;-61
2022/08/31 09:22:59;;;;;;;6.35;1.13;;;25.10;46.30;;;;;;5065370;28;20060;-61
2022/08/31 09:25:34;;;;;;;4.20;1.30;;;25.10;46.30;;;;;;5088822;28;20059;-61
2022/08/31 09:28:46;;;;;;;4.07;1.20;;;25.10;46.30;;;;;;5074806;28;20028;-61
2022/08/31 09:31:38;;;;;;;2.65;1.15;;;25.10;46.40;;;;;;5071480;28;20029;-61
2022/08/31 09:34:28;;;;;;;5.05;1.10;;;25.20;46.00;;;;;;5071357;28;20071;-61
2022/08/31 09:37:14;;;;;;;4.55;1.10;;;25.30;45.90;;;;;;5060247;28;20033;-62
2022/08/31 09:39:46;;;;;;;3.90;1.20;;;25.50;45.70;;;;;;5074049;28;20036;-61
2022/08/31 09:42:29;;;;;;;3.42;1.25;;;25.70;45.50;;;;;;5070403;28;20113;-61
2022/08/31 09:44:59;;;;;;;2.97;1.05;;;25.70;45.10;;;;;;5076959;28;20056;-61
2022/08/31 09:47:47;;;;;;;2.63;1.10;;;25.80;45.10;;;;;;5072536;28;20064;-61
2022/08/31 09:50:30;;;;;;;5.43;1.25;;;25.90;44.90;;;;;;5076790;28;20326;-62
2022/08/31 09:56:15;;;;;;;3.85;1.23;;;26.20;44.40;;;;;;5055393;28;20029;-63
2022/08/31 09:58:56;;;;;;;2.35;1.08;;;26.30;44.20;;;;;;5066603;28;20444;-63
2022/08/31 10:01:43;;;;;;;2.65;1.27;;;26.40;44.10;;;;;;5073966;28;20037;-63
2022/08/31 10:04:22;;;;;;;3.47;1.20;;;26.50;43.80;;;;;;5064123;28;20052;-63
2022/08/31 10:07:16;;;;;;;2.53;1.08;;;26.50;43.60;;;;;;5070929;28;20039;-63
2022/08/31 10:09:57;;;;;;;3.72;1.40;;;26.50;43.30;;;;;;5066092;28;20040;-63
2022/08/31 10:13:02;;;;;;;4.32;1.33;;;26.50;43.20;;;;;;5069556;28;20024;-63
2022/08/31 10:15:51;;;;;;;3.63;1.42;;;26.60;43.20;;;;;;5046392;28;20504;-63
2022/08/31 10:18:49;;;;;;;3.17;1.27;;;26.60;43.10;;;;;;5054709;28;20039;-63
2022/08/31 10:21:34;;;;;;;3.60;1.33;;;26.60;43.20;;;;;;5050708;28;20120;-63
2022/08/31 10:24:27;;;;;;;2.00;1.10;;;26.70;43.00;;;;;;5028836;28;20107;-63
2022/08/31 10:27:31;;;;;;;3.38;1.30;;;26.70;43.00;;;;;;5045610;28;20036;-63
2022/08/31 10:30:08;;;;;;;3.13;1.30;;;26.80;42.70;;;;;;5046217;28;20120;-63
2022/08/31 10:32:39;;;;;;;2.95;1.20;;;26.60;42.80;;;;;;5041971;28;20029;-63
2022/08/31 10:35:13;;;;;;;;;;;26.40;43.00;;;;;;5053808;28;20488;-62
2022/08/31 10:37:48;;;;;;;3.70;1.38;;;26.20;43.40;;;;;;5044111;28;20234;-62
2022/08/31 10:40:31;;;;;;;2.78;1.23;;;26.00;43.50;;;;;;5035139;28;20063;-63
2022/08/31 10:43:17;;;;;;;2.35;1.00;;;25.80;43.80;;;;;;5053857;28;20029;-62
2022/08/31 10:45:49;;;;;;;4.97;1.42;;;25.60;44.10;;;;;;5047467;28;20406;-62
2022/08/31 10:48:17;;;;;;;3.78;1.20;;;25.40;44.40;;;;;;5049441;28;20021;-63
2022/08/31 10:50:52;;;;;;;3.38;1.25;;;25.30;44.60;;;;;;5051657;28;20343;-62
2022/08/31 10:53:52;;;;;;;2.88;1.23;;;25.10;44.80;;;;;;5046028;28;20087;-62
2022/08/31 10:56:38;;;;;;;2.25;1.05;;;25.10;44.70;;;;;;5052430;28;20035;-62
2022/08/31 10:59:44;;;;;;;2.55;1.27;;;25.20;44.80;;;;;;5040593;28;20033;-62
2022/08/31 11:02:31;;;;;;;2.90;1.25;;;25.20;44.70;;;;;;5043999;28;20059;-62
2022/08/31 11:05:44;;;;;;;4.57;1.60;;;25.20;44.70;;;;;;5047834;28;20104;-62
2022/08/31 11:08:32;;;;;;;2.20;1.23;;;25.20;44.60;;;;;;5033831;28;20049;-62
2022/08/31 11:10:59;;;;;;;4.40;1.92;;;25.10;44.80;;;;;;5044403;28;20025;-62
2022/08/31 11:14:24;;;;;;;4.65;1.40;;;25.30;44.90;;;;;;5065593;28;20050;-62
2022/08/31 11:17:17;;;;;;;4.70;1.40;;;25.50;44.70;;;;;;5011801;28;20455;-62
2022/08/31 11:20:07;;;;;;;2.88;1.40;;;25.50;44.60;;;;;;5013240;28;20136;-62
2022/08/31 11:23:04;;;;;;;6.00;2.50;;;25.50;44.50;;;;;;5009930;28;20125;-62
2022/08/31 11:25:58;;;;;;;7.45;4.00;;;25.40;44.60;;;;;;5011701;28;20052;-62
2022/08/31 11:28:32;;;;;;;4.90;2.10;;;25.30;44.70;;;;;;5012225;28;20050;-62
2022/08/31 11:31:16;;;;;;;4.32;1.60;;;25.30;44.80;;;;;;5001382;28;20438;-62
2022/08/31 11:34:15;;;;;;;3.13;1.50;;;25.30;44.80;;;;;;5013960;28;20390;-62
2022/08/31 11:37:03;;;;;;;7.03;1.83;;;25.30;44.90;;;;;;4998781;28;20056;-62
2022/08/31 11:39:29;;;;;;;3.28;1.35;;;25.20;45.10;;;;;;5012979;28;20069;-62
2022/08/31 11:41:57;;;;;;;4.43;1.45;;;25.20;45.10;;;;;;5013604;28;20410;-62
2022/08/31 11:44:29;;;;;;;3.92;1.35;;;25.50;44.90;;;;;;5013497;28;20044;-62
2022/08/31 11:47:29;;;;;;;3.58;1.58;;;25.70;44.40;;;;;;5036206;28;20108;-64
2022/08/31 11:50:07;;;;;;;3.00;1.25;;;25.90;44.40;;;;;;5084032;28;20032;-63
2022/08/31 11:52:37;;;;;;;3.03;1.30;;;26.00;44.00;;;;;;5079714;28;20471;-62
2022/08/31 11:55:27;;;;;;;4.63;1.52;;;26.00;43.90;;;;;;5095358;28;20360;-62
2022/08/31 11:58:05;;;;;;;3.33;1.33;;;25.80;43.80;;;;;;5094997;28;20100;-62
2022/08/31 12:00:44;;;;;;;5.78;1.80;;;25.70;44.10;;;;;;5092753;28;20035;-62
2022/08/31 12:03:35;;;;;;;4.25;1.60;;;25.60;44.30;;;;;;5076982;28;20050;-62
2022/08/31 12:06:02;;;;;;;2.75;1.27;;;25.50;44.40;;;;;;5094567;28;20445;-62
2022/08/31 12:08:51;;;;;;;2.45;1.30;;;25.40;44.50;;;;;;5094618;28;20028;-62
2022/08/31 12:11:51;;;;;;;3.55;1.20;;;25.30;44.50;;;;;;5094655;28;20056;-62
2022/08/31 12:14:28;;;;;;;2.33;1.20;;;25.30;44.60;;;;;;5076431;28;20040;-62
2022/08/31 12:17:29;;;;;;;2.85;1.27;;;25.20;44.60;;;;;;5093445;28;20082;-62
2022/08/31 12:20:07;;;;;;;2.72;1.08;;;25.20;44.60;;;;;;5084021;28;20031;-62
2022/08/31 12:25:38;;;;;;;2.20;0.98;;;25.60;44.50;;;;;;5094601;28;20024;-62
2022/08/31 12:28:34;;;;;;;3.75;1.33;;;25.80;44.30;;;;;;5094013;28;20057;-62
2022/08/31 12:31:08;;;;;;;6.45;1.15;;;26.00;44.10;;;;;;5081051;28;20032;-62
2022/08/31 12:33:38;;;;;;;3.03;1.30;;;26.20;43.90;;;;;;5092666;28;20035;-62
2022/08/31 12:36:17;;;;;;;3.80;1.33;;;26.20;43.80;;;;;;5087935;28;20025;-63
2022/08/31 12:38:43;;;;;;;3.45;1.25;;;26.30;43.70;;;;;;5084107;28;20035;-62
2022/08/31 12:41:11;;;;;;;3.45;1.48;;;26.20;43.60;;;;;;5094475;28;20024;-61
2022/08/31 12:43:45;;;;;;;3.70;1.20;;;26.20;43.60;;;;;;5089627;28;20094;-61
2022/08/31 12:46:30;;;;;;;2.58;1.30;;;26.20;43.70;;;;;;5079584;28;20105;-62
2022/08/31 12:49:15;;;;;;;3.22;1.10;;;26.10;43.50;;;;;;5086696;28;20419;-61
2022/08/31 12:51:54;;;;;;;4.13;1.20;;;26.10;43.60;;;;;;5065112;28;20043;-61
2022/08/31 12:54:40;;;;;;;2.03;1.00;;;26.00;43.60;;;;;;5093537;28;20456;-61
2022/08/31 12:57:23;;;;;;;1.67;0.98;;;25.90;43.50;;;;;;5092858;28;20020;-62
2022/08/31 13:00:02;;;;;;;3.47;1.33;;;25.90;43.70;;;;;;5085034;28;20085;-62
2022/08/31 13:02:33;;;;;;;2.17;1.00;;;25.80;43.60;;;;;;5091878;28;20074;-67
2022/08/31 13:04:59;;;;;;;5.95;1.27;;;25.80;43.70;;;;;;5088027;28;20388;-67
2022/08/31 13:07:33;;;;;;;4.30;1.20;;;25.80;43.80;;;;;;5086857;28;20089;-67
2022/08/31 13:10:09;;;;;;;3.05;1.08;;;25.70;43.70;;;;;;5092159;28;20449;-72
2022/08/31 13:12:36;;;;;;;3.25;1.45;;;25.70;43.70;;;;;;5079001;28;20050;-69
2022/08/31 13:15:07;;;;;;;3.92;1.23;;;25.70;43.90;;;;;;5093964;28;20464;-69
2022/08/31 13:17:37;;;;;;;3.03;1.02;;;25.70;43.90;;;;;;5090763;28;20416;-68
2022/08/31 13:20:05;;;;;;;4.00;1.47;;;25.70;43.80;;;;;;5080684;28;20028;-68
2022/08/31 13:22:38;;;;;;;4.55;1.35;;;25.60;43.70;;;;;;5085235;28;20027;-73
2022/08/31 13:25:35;;;;;;;4.15;1.23;;;25.50;43.80;;;;;;5078148;28;20028;-71
2022/08/31 13:28:06;;;;;;;4.72;1.50;;;25.50;44.00;;;;;;5082436;28;20056;-67
2022/08/31 13:30:37;;;;;;;3.92;1.48;;;25.50;44.10;;;;;;5078681;28;20048;-67
2022/08/31 13:33:30;;;;;;;5.32;1.20;;;25.40;44.10;;;;;;5078309;28;20039;-66
2022/08/31 13:36:30;;;;;;;2.80;1.50;;;25.40;44.20;;;;;;5082873;28;20025;-67
2022/08/31 13:38:58;;;;;;;2.70;1.40;;;25.40;44.20;;;;;;5084241;28;20059;-68
2022/08/31 13:41:28;;;;;;;2.13;1.05;;;25.40;44.30;;;;;;5089537;28;20298;-68